createdAt,value
2022-12-13T00:00:47.231Z,30.17
2022-12-13T00:03:18.800Z,29.83
2022-12-13T00:05:50.392Z,32.78
2022-12-13T00:08:22.003Z,26.58
2022-12-13T00:11:06.232Z,32.95
2022-12-13T00:13:37.879Z,34.50
2022-12-13T00:16:18.735Z,30.08
2022-12-13T00:18:55.891Z,28.42
2022-12-13T00:21:30.449Z,31.92
2022-12-13T00:24:02.390Z,31.50
2022-12-13T00:26:34.354Z,31.15
2022-12-13T00:29:07.274Z,32.75
2022-12-13T00:34:30.797Z,31.65
2022-12-13T00:37:02.343Z,31.13
2022-12-13T00:39:36.854Z,29.55
2022-12-13T00:42:08.464Z,36.28
2022-12-13T00:44:39.981Z,30.95
2022-12-13T00:47:11.556Z,30.75
2022-12-13T00:49:43.145Z,30.52
2022-12-13T00:52:17.059Z,33.63
2022-12-13T00:54:48.727Z,23.85
2022-12-13T00:57:21.223Z,29.02
2022-12-13T00:59:52.997Z,31.08
2022-12-13T01:02:24.542Z,30.45
2022-12-13T01:04:56.075Z,34.00
2022-12-13T01:07:29.064Z,30.85
2022-12-13T01:10:00.953Z,29.08
2022-12-13T01:12:33.174Z,27.92
2022-12-13T01:15:06.895Z,30.20
2022-12-13T01:17:41.387Z,32.13
2022-12-13T01:20:13.105Z,25.85
2022-12-13T01:22:44.651Z,34.60
2022-12-13T01:25:19.341Z,35.60
2022-12-13T01:30:22.337Z,32.20
2022-12-13T01:32:53.944Z,35.55
2022-12-13T01:35:25.493Z,35.03
2022-12-13T01:37:58.294Z,32.08
2022-12-13T01:40:32.169Z,33.58
2022-12-13T01:43:14.784Z,37.97
2022-12-13T01:45:46.685Z,38.20
2022-12-13T01:48:26.213Z,33.60
2022-12-13T01:51:07.008Z,38.05
2022-12-13T01:53:42.634Z,34.35
2022-12-13T01:56:20.032Z,39.50
2022-12-13T01:58:54.832Z,33.05
2022-12-13T02:01:28.280Z,36.03
2022-12-13T02:03:59.989Z,36.72
2022-12-13T02:06:35.898Z,35.72
2022-12-13T02:09:08.932Z,36.10
2022-12-13T02:11:43.638Z,33.85
2022-12-13T02:16:58.183Z,34.33
2022-12-13T02:19:56.608Z,33.78
2022-12-13T02:23:02.048Z,33.50
2022-12-13T02:26:03.588Z,37.90
2022-12-13T02:28:47.041Z,36.03
2022-12-13T02:31:43.935Z,35.85
2022-12-13T02:34:24.519Z,38.28
2022-12-13T02:37:18.122Z,33.70
2022-12-13T02:39:58.568Z,34.92
2022-12-13T02:42:41.910Z,33.67
2022-12-13T02:45:37.951Z,31.92
2022-12-13T02:48:12.292Z,34.20
2022-12-13T02:50:46.044Z,38.95
2022-12-13T02:53:19.285Z,33.37
2022-12-13T02:55:50.824Z,37.97
2022-12-13T02:58:29.319Z,34.83
2022-12-13T03:01:28.950Z,35.97
2022-12-13T03:04:22.180Z,35.03
2022-12-13T03:07:25.843Z,33.55
2022-12-13T03:10:06.508Z,40.25
2022-12-13T03:13:27.051Z,33.65
2022-12-13T03:16:08.611Z,34.20
2022-12-13T03:18:41.638Z,33.33
2022-12-13T03:21:13.613Z,34.03
2022-12-13T03:23:47.383Z,31.75
2022-12-13T03:26:22.404Z,31.33
2022-12-13T03:28:54.468Z,32.22
2022-12-13T03:31:27.605Z,34.20
2022-12-13T03:33:59.366Z,33.80
2022-12-13T03:36:31.198Z,31.77
2022-12-13T03:39:05.521Z,31.88
2022-12-13T03:41:37.196Z,31.95
2022-12-13T03:44:08.795Z,31.67
2022-12-13T03:46:40.494Z,36.67
2022-12-13T03:49:16.817Z,38.88
2022-12-13T03:51:49.078Z,31.23
2022-12-13T03:54:24.277Z,30.38
2022-12-13T03:56:55.945Z,33.58
2022-12-13T03:59:27.812Z,31.43
2022-12-13T04:01:59.648Z,30.48
2022-12-13T04:04:31.426Z,30.23
2022-12-13T04:07:03.133Z,27.55
2022-12-13T04:09:34.715Z,25.23
2022-12-13T04:12:28.604Z,33.58
2022-12-13T04:15:00.170Z,31.20
2022-12-13T04:17:31.792Z,31.33
2022-12-13T04:20:04.053Z,31.45
2022-12-13T04:22:35.753Z,29.10
2022-12-13T04:25:08.011Z,32.57
2022-12-13T04:27:40.115Z,33.50
2022-12-13T04:30:13.072Z,30.83
2022-12-13T04:32:46.801Z,25.33
2022-12-13T04:35:18.583Z,34.38
2022-12-13T04:37:50.998Z,29.03
2022-12-13T04:40:24.174Z,30.95
2022-12-13T04:42:55.936Z,28.30
2022-12-13T04:45:27.753Z,30.58
2022-12-13T04:48:02.315Z,34.00
2022-12-13T04:50:34.060Z,27.88
2022-12-13T04:53:05.693Z,35.33
2022-12-13T04:55:37.270Z,32.83
2022-12-13T04:58:08.831Z,30.17
2022-12-13T05:00:41.007Z,26.15
2022-12-13T05:03:16.203Z,30.90
2022-12-13T05:05:50.353Z,29.13
2022-12-13T05:08:22.353Z,31.95
2022-12-13T05:10:54.674Z,31.00
2022-12-13T05:13:26.583Z,29.23
2022-12-13T05:16:06.173Z,28.65
2022-12-13T05:18:38.743Z,30.83
2022-12-13T05:21:12.181Z,28.45
2022-12-13T05:23:43.760Z,29.37
2022-12-13T05:26:15.385Z,26.55
2022-12-13T05:28:49.133Z,30.17
2022-12-13T05:31:24.197Z,30.07
2022-12-13T05:34:01.508Z,27.88
2022-12-13T05:36:33.354Z,30.50
2022-12-13T05:39:04.983Z,28.43
2022-12-13T05:41:37.192Z,29.53
2022-12-13T05:44:10.507Z,31.23
2022-12-13T05:46:42.094Z,32.50
2022-12-13T05:49:13.739Z,31.27
2022-12-13T05:51:45.321Z,30.40
2022-12-13T05:54:16.944Z,31.60
2022-12-13T05:56:48.587Z,34.97
2022-12-13T05:59:20.200Z,31.03
2022-12-13T06:01:51.916Z,29.55
2022-12-13T06:04:23.787Z,27.27
2022-12-13T06:06:55.534Z,31.75
2022-12-13T06:09:27.124Z,34.80
2022-12-13T06:12:01.003Z,30.97
2022-12-13T06:14:33.261Z,31.63
2022-12-13T06:17:09.858Z,30.17
2022-12-13T06:19:41.702Z,35.63
2022-12-13T06:22:14.553Z,30.50
2022-12-13T06:24:46.545Z,29.13
2022-12-13T06:27:18.209Z,34.00
2022-12-13T06:29:49.863Z,30.27
2022-12-13T06:32:21.426Z,32.67
2022-12-13T06:34:53.010Z,31.20
2022-12-13T06:37:28.476Z,31.67
2022-12-13T06:40:00.206Z,32.83
2022-12-13T06:42:32.062Z,31.47
2022-12-13T06:45:04.872Z,31.97
2022-12-13T06:47:38.751Z,28.67
2022-12-13T06:50:13.173Z,32.73
2022-12-13T06:52:46.575Z,36.23
2022-12-13T06:55:23.883Z,33.43
2022-12-13T06:57:58.415Z,34.88
2022-12-13T07:00:36.897Z,27.38
2022-12-13T07:03:12.674Z,31.30
2022-12-13T07:05:45.165Z,33.92
2022-12-13T07:08:22.375Z,33.28
2022-12-13T07:10:55.400Z,36.38
2022-12-13T07:13:27.084Z,36.60
2022-12-13T07:16:01.032Z,32.90
2022-12-13T07:18:33.614Z,40.55
2022-12-13T07:21:09.551Z,36.60
2022-12-13T07:23:55.421Z,37.50
2022-12-13T07:26:27.324Z,34.92
2022-12-13T07:28:59.050Z,33.75
2022-12-13T07:31:30.877Z,38.83
2022-12-13T07:34:02.724Z,30.02
2022-12-13T07:36:34.362Z,35.88
2022-12-13T07:39:05.985Z,34.22
2022-12-13T07:41:37.736Z,36.28
2022-12-13T07:44:10.917Z,36.03
2022-12-13T07:46:42.624Z,33.97
2022-12-13T07:49:14.347Z,31.25
2022-12-13T07:51:45.931Z,33.15
2022-12-13T07:54:17.950Z,32.33
2022-12-13T07:56:49.490Z,30.92
2022-12-13T07:59:28.520Z,30.42
2022-12-13T08:02:01.736Z,29.92
2022-12-13T08:04:38.030Z,27.95
2022-12-13T08:07:10.618Z,29.98
2022-12-13T08:09:42.211Z,27.55
2022-12-13T08:12:13.885Z,23.17
2022-12-13T08:14:55.246Z,28.60
2022-12-13T08:17:26.913Z,26.67
2022-12-13T08:19:58.534Z,25.52
2022-12-13T08:22:30.187Z,25.40
2022-12-13T08:25:08.042Z,26.23
2022-12-13T08:27:43.035Z,26.65
2022-12-13T08:30:20.480Z,22.38
2022-12-13T08:32:56.005Z,22.67
2022-12-13T08:35:33.694Z,27.98
2022-12-13T08:38:05.488Z,26.17
2022-12-13T08:40:37.242Z,24.75
2022-12-13T08:43:09.027Z,24.67
2022-12-13T08:45:40.676Z,24.58
2022-12-13T08:48:12.769Z,25.75
2022-12-13T08:50:44.342Z,25.63
2022-12-13T08:53:28.594Z,24.35
2022-12-13T08:56:03.300Z,24.35
2022-12-13T08:58:34.975Z,22.25
2022-12-13T09:01:07.970Z,24.60
2022-12-13T09:03:39.681Z,26.40
2022-12-13T09:06:14.379Z,29.27
2022-12-13T09:11:34.837Z,26.90
2022-12-13T09:14:14.153Z,25.95
2022-12-13T09:16:50.598Z,25.05
2022-12-13T09:19:26.704Z,26.88
2022-12-13T09:22:02.736Z,27.88
2022-12-13T09:24:35.843Z,23.77
2022-12-13T09:27:10.344Z,26.35
2022-12-13T09:29:58.818Z,25.20
2022-12-13T09:32:32.055Z,25.15
2022-12-13T09:35:06.841Z,28.27
2022-12-13T09:37:44.107Z,25.63
2022-12-13T09:40:26.277Z,25.13
2022-12-13T09:43:12.325Z,24.13
2022-12-13T09:45:50.875Z,22.08
2022-12-13T09:48:23.825Z,27.00
2022-12-13T09:51:16.693Z,25.10
2022-12-13T09:53:50.691Z,22.70
2022-12-13T09:56:23.925Z,23.40
2022-12-13T09:58:56.966Z,23.42
2022-12-13T10:01:28.705Z,21.25
2022-12-13T10:04:01.380Z,25.20
2022-12-13T10:06:34.696Z,23.27
2022-12-13T10:09:12.251Z,34.15
2022-12-13T10:11:51.386Z,24.05
2022-12-13T10:14:31.443Z,24.23
2022-12-13T10:17:07.488Z,26.00
2022-12-13T10:19:43.317Z,27.25
2022-12-13T10:22:17.333Z,24.13
2022-12-13T10:24:52.197Z,22.35
2022-12-13T10:27:33.113Z,25.33
2022-12-13T10:30:28.732Z,24.80
2022-12-13T10:33:03.740Z,27.48
2022-12-13T10:35:40.908Z,24.63
2022-12-13T10:38:18.544Z,27.63
2022-12-13T10:40:50.228Z,26.35
2022-12-13T10:43:27.796Z,29.83
2022-12-13T10:46:03.007Z,26.48
2022-12-13T10:48:40.190Z,27.67
2022-12-13T10:51:14.418Z,29.02
2022-12-13T10:53:49.949Z,28.70
2022-12-13T10:56:24.130Z,29.23
2022-12-13T10:59:24.633Z,28.15
2022-12-13T11:01:56.382Z,31.63
2022-12-13T11:04:29.923Z,31.42
2022-12-13T11:07:28.113Z,33.53
2022-12-13T11:10:41.555Z,31.02
2022-12-13T11:13:43.844Z,32.85
2022-12-13T11:16:26.102Z,32.67
2022-12-13T11:19:02.593Z,38.53
2022-12-13T11:21:37.774Z,34.65
2022-12-13T11:24:16.849Z,35.53
2022-12-13T11:29:58.893Z,36.65
2022-12-13T11:32:33.116Z,36.60
2022-12-13T11:35:28.060Z,38.85
2022-12-13T11:38:11.243Z,34.08
2022-12-13T11:40:53.043Z,38.17
2022-12-13T11:43:58.309Z,31.15
2022-12-13T11:46:40.448Z,41.53
2022-12-13T11:49:40.934Z,32.40
2022-12-13T11:52:23.631Z,34.60
2022-12-13T11:55:03.775Z,38.58
2022-12-13T11:57:41.640Z,35.05
2022-12-13T12:00:33.631Z,39.28
2022-12-13T12:03:09.297Z,35.95
2022-12-13T12:05:47.020Z,35.10
2022-12-13T12:08:32.388Z,37.85
2022-12-13T12:11:10.816Z,35.38
2022-12-13T12:14:13.070Z,34.03
2022-12-13T12:16:53.958Z,38.47
2022-12-13T12:19:31.668Z,34.60
2022-12-13T12:22:32.386Z,41.90
2022-12-13T12:25:38.177Z,36.05
2022-12-13T12:28:44.571Z,39.78
2022-12-13T12:31:30.118Z,35.47
2022-12-13T12:34:40.457Z,38.08
2022-12-13T12:37:47.774Z,38.63
2022-12-13T12:41:15.687Z,39.47
2022-12-13T12:44:06.582Z,37.55
2022-12-13T12:49:41.040Z,37.35
2022-12-13T12:52:50.600Z,36.70
2022-12-13T12:55:51.556Z,36.80
2022-12-13T12:58:44.919Z,38.72
2022-12-13T13:01:54.083Z,40.33
2022-12-13T13:04:36.330Z,36.80
2022-12-13T13:07:22.527Z,40.35
2022-12-13T13:09:57.292Z,38.47
2022-12-13T13:12:31.042Z,39.88
2022-12-13T13:15:33.608Z,47.25
2022-12-13T13:18:43.768Z,43.15
2022-12-13T13:21:24.362Z,43.00
2022-12-13T13:24:08.500Z,43.13
2022-12-13T13:26:46.578Z,41.50
2022-12-13T13:29:27.479Z,45.97
2022-12-13T13:32:12.378Z,38.78
2022-12-13T13:35:32.537Z,42.13
2022-12-13T13:38:22.860Z,42.97
2022-12-13T13:40:55.164Z,47.65
2022-12-13T13:43:32.580Z,43.95
2022-12-13T13:46:13.104Z,38.75
2022-12-13T13:49:05.369Z,42.85
2022-12-13T13:52:08.573Z,43.08
2022-12-13T13:55:05.726Z,38.72
2022-12-13T13:58:12.991Z,41.95
2022-12-13T14:03:48.673Z,40.80
2022-12-13T14:06:46.649Z,43.63
2022-12-13T14:09:45.827Z,41.22
2022-12-13T14:12:42.806Z,45.17
2022-12-13T14:15:59.613Z,45.72
2022-12-13T14:19:11.085Z,40.05
2022-12-13T14:22:02.839Z,41.55
2022-12-13T14:24:59.529Z,43.88
2022-12-13T14:27:46.895Z,43.47
2022-12-13T14:30:28.202Z,40.50
2022-12-13T14:33:03.619Z,48.75
2022-12-13T14:35:35.674Z,40.58
2022-12-13T14:38:25.942Z,44.80
2022-12-13T14:41:08.515Z,45.92
2022-12-13T14:43:43.228Z,39.40
2022-12-13T14:46:20.406Z,47.97
2022-12-13T14:48:54.034Z,41.85
2022-12-13T14:51:32.816Z,41.30
2022-12-13T14:54:15.554Z,42.03
2022-12-13T14:57:02.535Z,40.70
2022-12-13T14:59:50.402Z,44.28
2022-12-13T15:02:31.272Z,45.25
2022-12-13T15:05:05.707Z,42.05
2022-12-13T15:07:44.849Z,41.90
2022-12-13T15:10:25.374Z,44.75
2022-12-13T15:13:00.343Z,44.03
2022-12-13T15:15:36.985Z,42.05
2022-12-13T15:18:24.534Z,45.60
2022-12-13T15:21:02.540Z,41.42
2022-12-13T15:23:56.077Z,44.42
2022-12-13T15:26:34.422Z,37.22
2022-12-13T15:29:14.825Z,36.70
2022-12-13T15:31:49.106Z,42.90
2022-12-13T15:34:31.111Z,41.30
2022-12-13T15:37:29.413Z,37.42
2022-12-13T15:40:08.767Z,38.42
2022-12-13T15:42:47.138Z,34.70
2022-12-13T15:45:22.889Z,34.88
2022-12-13T15:47:55.139Z,35.50
2022-12-13T15:50:45.519Z,38.60
2022-12-13T15:53:30.654Z,36.83
2022-12-13T15:56:09.491Z,36.30
2022-12-13T15:58:41.404Z,34.22
2022-12-13T16:01:26.082Z,38.67
2022-12-13T16:04:03.663Z,38.17
2022-12-13T16:06:35.308Z,38.30
2022-12-13T16:09:18.608Z,37.47
2022-12-13T16:12:01.917Z,34.95
2022-12-13T16:14:49.030Z,36.90
2022-12-13T16:17:27.434Z,39.33
2022-12-13T16:20:02.066Z,39.50
2022-12-13T16:22:35.191Z,39.55
2022-12-13T16:25:07.402Z,40.22
2022-12-13T16:27:39.585Z,41.72
2022-12-13T16:30:22.612Z,42.03
2022-12-13T16:33:18.078Z,40.45
2022-12-13T16:35:49.295Z,79.70
2022-12-13T16:41:08.808Z,41.72
2022-12-13T16:44:03.319Z,38.85
2022-12-13T16:47:12.236Z,40.83
2022-12-13T16:50:03.959Z,38.95
2022-12-13T16:52:39.489Z,42.58
2022-12-13T16:55:11.112Z,43.50
2022-12-13T16:57:42.700Z,42.72
2022-12-13T17:00:14.781Z,37.13
2022-12-13T17:02:53.016Z,41.15
2022-12-13T17:05:26.630Z,45.90
2022-12-13T17:07:58.206Z,44.58
2022-12-13T17:10:31.075Z,40.97
2022-12-13T17:13:05.748Z,41.60
2022-12-13T17:15:38.131Z,42.05
2022-12-13T17:18:10.154Z,45.75
2022-12-13T17:20:45.205Z,42.13
2022-12-13T17:23:19.280Z,43.55
2022-12-13T17:25:58.232Z,43.15
2022-12-13T17:28:30.799Z,40.33
2022-12-13T17:31:14.551Z,37.53
2022-12-13T17:33:46.945Z,41.40
2022-12-13T17:36:21.770Z,53.53
2022-12-13T17:38:53.429Z,45.35
2022-12-13T17:41:25.116Z,44.78
2022-12-13T17:44:00.776Z,43.40
2022-12-13T17:46:37.035Z,44.28
2022-12-13T17:49:08.713Z,37.97
2022-12-13T17:51:40.826Z,43.95
2022-12-13T17:54:15.042Z,42.13
2022-12-13T17:56:47.277Z,48.28
2022-12-13T17:59:19.400Z,45.47
2022-12-13T18:01:51.365Z,41.03
2022-12-13T18:04:23.600Z,43.10
2022-12-13T18:07:00.330Z,44.50
2022-12-13T18:09:32.451Z,46.67
2022-12-13T18:12:04.273Z,48.60
2022-12-13T18:14:36.767Z,45.80
2022-12-13T18:17:08.412Z,42.88
2022-12-13T18:19:40.235Z,45.45
2022-12-13T18:22:11.919Z,50.95
2022-12-13T18:24:43.563Z,44.63
2022-12-13T18:27:15.159Z,50.92
2022-12-13T18:29:55.196Z,48.67
2022-12-13T18:32:27.565Z,53.05
2022-12-13T18:34:59.411Z,51.17
2022-12-13T18:37:34.221Z,44.25
2022-12-13T18:40:06.527Z,53.15
2022-12-13T18:42:38.187Z,50.50
2022-12-13T18:45:13.381Z,48.70
2022-12-13T18:47:45.099Z,45.55
2022-12-13T18:50:16.894Z,51.53
2022-12-13T18:52:51.497Z,43.83
2022-12-13T18:55:25.316Z,53.10
2022-12-13T18:57:59.379Z,50.33
2022-12-13T19:00:32.919Z,50.97
2022-12-13T19:03:07.677Z,47.67
2022-12-13T19:05:59.765Z,47.10
2022-12-13T19:08:32.146Z,47.40
2022-12-13T19:11:04.222Z,49.75
2022-12-13T19:13:36.038Z,53.15
2022-12-13T19:16:20.933Z,49.03
2022-12-13T19:18:55.856Z,51.10
2022-12-13T19:21:32.519Z,47.90
2022-12-13T19:24:04.985Z,47.80
2022-12-13T19:26:38.426Z,47.88
2022-12-13T19:29:10.168Z,46.60
2022-12-13T19:31:47.742Z,44.65
2022-12-13T19:34:22.191Z,54.03
2022-12-13T19:37:06.297Z,57.58
2022-12-13T19:39:38.746Z,55.30
2022-12-13T19:42:10.866Z,54.17
2022-12-13T19:44:42.633Z,51.57
2022-12-13T19:47:14.347Z,52.50
2022-12-13T19:49:48.159Z,52.80
2022-12-13T19:52:21.196Z,47.57
2022-12-13T19:54:53.122Z,42.17
2022-12-13T19:57:25.426Z,48.97
2022-12-13T19:59:59.664Z,56.87
2022-12-13T20:02:45.166Z,66.13
2022-12-13T20:05:17.671Z,101.63
2022-12-13T20:07:51.232Z,58.07
2022-12-13T20:10:22.825Z,55.13
2022-12-13T20:12:54.483Z,43.40
2022-12-13T20:18:24.679Z,62.17
2022-12-13T20:21:15.061Z,62.20
2022-12-13T20:23:49.282Z,77.35
2022-12-13T20:26:28.004Z,82.37
2022-12-13T20:29:01.723Z,64.97
2022-12-13T20:31:35.164Z,62.03
2022-12-13T20:34:10.212Z,52.65
2022-12-13T20:36:46.412Z,56.40
2022-12-13T20:39:18.316Z,55.53
2022-12-13T20:41:50.062Z,58.30
2022-12-13T20:44:21.947Z,58.23
2022-12-13T20:46:53.867Z,59.87
2022-12-13T20:49:25.740Z,61.10
2022-12-13T20:52:00.605Z,59.60
2022-12-13T20:54:32.520Z,58.47
2022-12-13T20:57:04.122Z,63.67
2022-12-13T20:59:36.020Z,59.53
2022-12-13T21:02:07.682Z,56.67
2022-12-13T21:04:40.418Z,59.33
2022-12-13T21:07:15.322Z,58.97
2022-12-13T21:09:47.149Z,62.60
2022-12-13T21:12:18.761Z,56.50
2022-12-13T21:14:52.570Z,54.47
2022-12-13T21:17:28.768Z,64.23
2022-12-13T21:22:31.974Z,53.00
2022-12-13T21:25:04.949Z,59.43
2022-12-13T21:27:36.540Z,63.43
2022-12-13T21:30:08.826Z,58.87
2022-12-13T21:32:40.475Z,54.00
2022-12-13T21:35:18.175Z,55.10
2022-12-13T21:37:52.590Z,58.40
2022-12-13T21:40:29.384Z,59.30
2022-12-13T21:43:01.090Z,47.88
2022-12-13T21:45:57.781Z,59.67
2022-12-13T21:48:29.475Z,58.33
2022-12-13T21:51:01.841Z,76.67
2022-12-13T21:53:35.008Z,60.40
2022-12-13T21:56:26.658Z,61.50
2022-12-13T21:59:19.392Z,64.93
2022-12-13T22:02:12.367Z,80.13
2022-12-13T22:04:55.620Z,74.70
2022-12-13T22:07:37.832Z,65.80
2022-12-13T22:10:10.073Z,66.27
2022-12-13T22:12:43.251Z,63.40
2022-12-13T22:15:16.159Z,63.83
2022-12-13T22:17:49.740Z,60.97
2022-12-13T22:20:22.173Z,54.83
2022-12-13T22:22:53.832Z,67.23
2022-12-13T22:25:28.202Z,63.47
2022-12-13T22:28:00.381Z,60.53
2022-12-13T22:30:33.008Z,59.07
2022-12-13T22:33:04.554Z,69.07
2022-12-13T22:35:41.225Z,63.50
2022-12-13T22:38:12.911Z,73.23
2022-12-13T22:40:45.922Z,75.97
2022-12-13T22:43:20.531Z,80.73
2022-12-13T22:45:52.517Z,74.20
2022-12-13T22:48:25.463Z,84.40
2022-12-13T22:51:11.350Z,75.33
2022-12-13T22:53:47.162Z,78.50
2022-12-13T22:56:23.139Z,75.23
2022-12-13T22:58:57.211Z,71.63
2022-12-13T23:01:34.594Z,74.50
2022-12-13T23:04:07.492Z,77.40
2022-12-13T23:06:40.348Z,76.80
2022-12-13T23:09:14.179Z,69.37
2022-12-13T23:12:04.826Z,72.30
2022-12-13T23:14:36.478Z,66.03
2022-12-13T23:17:10.958Z,70.23
2022-12-13T23:19:52.864Z,61.55
2022-12-13T23:22:25.957Z,73.70
2022-12-13T23:24:57.769Z,67.70
2022-12-13T23:27:29.672Z,78.57
2022-12-13T23:30:02.028Z,86.13
2022-12-13T23:32:34.751Z,82.23
2022-12-13T23:35:08.318Z,86.80
2022-12-13T23:37:40.044Z,90.83
2022-12-13T23:40:12.052Z,83.03
2022-12-13T23:42:43.714Z,90.13
2022-12-13T23:45:15.377Z,82.83
2022-12-13T23:47:47.104Z,85.50
2022-12-13T23:50:18.794Z,78.47
2022-12-13T23:52:50.412Z,82.07
2022-12-13T23:55:22.127Z,84.03
2022-12-13T23:57:53.797Z,84.57
